createdAt,value
2023-02-11T00:01:25.979Z,16.00
2023-02-11T00:03:54.510Z,15.80
2023-02-11T00:06:23.596Z,17.50
2023-02-11T00:08:51.718Z,16.40
2023-02-11T00:11:20.929Z,16.60
2023-02-11T00:13:48.991Z,16.40
2023-02-11T00:16:20.233Z,16.40
2023-02-11T00:18:49.066Z,17.00
2023-02-11T00:21:19.291Z,16.90
2023-02-11T00:23:47.988Z,16.70
2023-02-11T00:26:18.511Z,15.40
2023-02-11T00:28:48.224Z,17.60
2023-02-11T00:31:17.066Z,16.40
2023-02-11T00:33:45.330Z,16.70
2023-02-11T00:36:15.858Z,16.70
2023-02-11T00:38:48.248Z,16.20
2023-02-11T00:41:16.446Z,16.80
2023-02-11T00:43:47.012Z,18.50
2023-02-11T00:46:15.556Z,16.50
2023-02-11T00:48:44.094Z,17.10
2023-02-11T00:51:12.788Z,17.00
2023-02-11T00:53:41.167Z,18.00
2023-02-11T00:56:09.660Z,17.20
2023-02-11T00:58:38.433Z,17.90
2023-02-11T01:01:07.993Z,17.10
2023-02-11T01:03:36.431Z,17.40
2023-02-11T01:06:06.031Z,17.40
2023-02-11T01:08:34.326Z,17.40
2023-02-11T01:11:06.797Z,19.00
2023-02-11T01:13:37.393Z,18.80
2023-02-11T01:16:08.739Z,20.30
2023-02-11T01:18:37.592Z,19.10
2023-02-11T01:21:06.071Z,18.00
2023-02-11T01:23:34.163Z,20.00
2023-02-11T01:26:02.205Z,18.60
2023-02-11T01:28:30.806Z,19.00
2023-02-11T01:31:01.669Z,19.80
2023-02-11T01:33:30.441Z,19.80
2023-02-11T01:36:04.053Z,19.10
2023-02-11T01:38:32.740Z,18.60
2023-02-11T01:41:07.865Z,18.90
2023-02-11T01:46:36.662Z,18.00
2023-02-11T01:49:10.503Z,18.30
2023-02-11T01:51:44.495Z,19.30
2023-02-11T01:54:33.816Z,19.10
2023-02-11T01:57:21.177Z,19.90
2023-02-11T02:00:04.616Z,17.70
2023-02-11T02:02:55.344Z,18.40
2023-02-11T02:05:37.248Z,18.70
2023-02-11T02:08:21.535Z,19.20
2023-02-11T02:10:54.154Z,14.10
2023-02-11T02:13:23.712Z,18.50
2023-02-11T02:15:54.628Z,17.90
2023-02-11T02:18:25.925Z,17.90
2023-02-11T02:21:31.842Z,17.80
2023-02-11T02:24:19.052Z,18.40
2023-02-11T02:27:12.054Z,21.50
2023-02-11T02:30:02.281Z,20.10
2023-02-11T02:32:33.833Z,20.20
2023-02-11T02:35:23.813Z,20.00
2023-02-11T02:38:26.290Z,18.50
2023-02-11T02:41:10.025Z,17.20
2023-02-11T02:43:41.840Z,18.20
2023-02-11T02:46:39.492Z,18.40
2023-02-11T02:49:14.684Z,18.90
2023-02-11T02:52:00.896Z,17.40
2023-02-11T02:54:50.442Z,16.80
2023-02-11T02:57:43.766Z,17.90
2023-02-11T03:00:30.105Z,16.80
2023-02-11T03:03:09.188Z,18.30
2023-02-11T03:05:51.953Z,17.20
2023-02-11T03:08:53.605Z,16.90
2023-02-11T03:11:23.257Z,17.50
2023-02-11T03:13:51.820Z,17.30
2023-02-11T03:16:23.227Z,16.60
2023-02-11T03:18:58.492Z,18.50
2023-02-11T03:21:26.689Z,17.80
2023-02-11T03:23:56.636Z,17.10
2023-02-11T03:26:49.738Z,16.50
2023-02-11T03:29:21.123Z,15.50
2023-02-11T03:32:12.506Z,16.80
2023-02-11T03:35:04.072Z,18.40
2023-02-11T03:37:35.162Z,17.00
2023-02-11T03:40:06.205Z,17.00
2023-02-11T03:42:40.514Z,17.40
2023-02-11T03:45:10.542Z,16.80
2023-02-11T03:47:43.060Z,16.70
2023-02-11T03:50:11.543Z,17.50
2023-02-11T03:52:40.146Z,15.80
2023-02-11T03:55:11.486Z,17.40
2023-02-11T03:57:40.177Z,16.80
2023-02-11T04:00:09.536Z,17.80
2023-02-11T04:02:41.248Z,17.50
2023-02-11T04:05:11.257Z,17.70
2023-02-11T04:07:39.436Z,16.80
2023-02-11T04:10:08.225Z,18.00
2023-02-11T04:12:36.511Z,18.10
2023-02-11T04:15:05.510Z,17.60
2023-02-11T04:17:33.666Z,17.30
2023-02-11T04:20:01.965Z,17.00
2023-02-11T04:22:30.766Z,17.40
2023-02-11T04:24:58.840Z,17.60
2023-02-11T04:27:27.226Z,19.00
2023-02-11T04:29:55.414Z,17.50
2023-02-11T04:32:24.118Z,18.10
2023-02-11T04:34:52.585Z,18.60
2023-02-11T04:37:21.067Z,18.00
2023-02-11T04:39:49.240Z,16.50
2023-02-11T04:42:17.402Z,20.10
2023-02-11T04:44:45.802Z,20.20
2023-02-11T04:47:15.523Z,18.00
2023-02-11T04:49:43.671Z,17.60
2023-02-11T04:52:12.082Z,20.70
2023-02-11T04:54:40.977Z,21.00
2023-02-11T04:57:10.281Z,19.00
2023-02-11T04:59:38.825Z,19.00
2023-02-11T05:02:07.044Z,18.40
2023-02-11T05:04:35.250Z,21.60
2023-02-11T05:07:03.627Z,22.50
2023-02-11T05:09:35.505Z,21.80
2023-02-11T05:12:04.361Z,20.30
2023-02-11T05:14:33.537Z,20.00
2023-02-11T05:17:02.000Z,20.00
2023-02-11T05:19:32.095Z,21.30
2023-02-11T05:22:03.409Z,19.60
2023-02-11T05:24:32.530Z,20.60
2023-02-11T05:27:01.226Z,21.30
2023-02-11T05:29:29.726Z,19.70
2023-02-11T05:32:00.260Z,19.40
2023-02-11T05:34:28.719Z,18.80
2023-02-11T05:36:56.819Z,18.40
2023-02-11T05:39:25.184Z,18.50
2023-02-11T05:41:53.467Z,19.60
2023-02-11T05:44:21.961Z,20.50
2023-02-11T05:46:50.849Z,20.20
2023-02-11T05:49:19.543Z,20.50
2023-02-11T05:51:47.696Z,19.10
2023-02-11T05:54:16.086Z,20.00
2023-02-11T05:56:44.971Z,19.00
2023-02-11T05:59:16.272Z,17.80
2023-02-11T06:01:44.509Z,17.40
2023-02-11T06:04:13.942Z,16.90
2023-02-11T06:06:42.210Z,16.10
2023-02-11T06:09:12.243Z,16.20
2023-02-11T06:11:40.418Z,14.90
2023-02-11T06:14:13.108Z,15.90
2023-02-11T06:16:42.398Z,15.40
2023-02-11T06:19:11.394Z,16.20
2023-02-11T06:21:44.298Z,16.70
2023-02-11T06:24:12.788Z,15.70
2023-02-11T06:26:41.567Z,16.10
2023-02-11T06:29:10.206Z,14.40
2023-02-11T06:31:40.015Z,16.50
2023-02-11T06:34:09.481Z,19.00
2023-02-11T06:36:41.134Z,17.40
2023-02-11T06:39:09.616Z,17.50
2023-02-11T06:41:37.952Z,17.00
2023-02-11T06:44:06.896Z,17.20
2023-02-11T06:46:35.027Z,16.90
2023-02-11T06:49:03.454Z,16.50
2023-02-11T06:51:31.634Z,16.50
2023-02-11T06:54:00.025Z,19.10
2023-02-11T06:56:28.337Z,16.10
2023-02-11T06:58:56.797Z,17.00
2023-02-11T07:01:25.611Z,16.50
2023-02-11T07:03:53.966Z,16.80
2023-02-11T07:06:25.144Z,16.20
2023-02-11T07:08:55.274Z,18.40
2023-02-11T07:11:29.105Z,17.30
2023-02-11T07:14:01.561Z,18.40
2023-02-11T07:16:30.315Z,17.90
2023-02-11T07:19:03.509Z,16.60
2023-02-11T07:21:31.780Z,18.20
2023-02-11T07:24:00.159Z,18.60
2023-02-11T07:26:29.252Z,18.90
2023-02-11T07:28:58.577Z,19.10
2023-02-11T07:31:28.828Z,21.20
2023-02-11T07:34:00.069Z,20.20
2023-02-11T07:36:30.237Z,19.80
2023-02-11T07:38:58.856Z,21.70
2023-02-11T07:41:27.587Z,22.00
2023-02-11T07:43:56.032Z,22.50
2023-02-11T07:46:26.299Z,22.60
2023-02-11T07:48:55.188Z,23.30
2023-02-11T07:51:25.540Z,22.00
2023-02-11T07:53:54.277Z,21.30
2023-02-11T07:56:22.768Z,23.40
2023-02-11T07:58:51.155Z,22.10
2023-02-11T08:01:26.083Z,22.70
2023-02-11T08:03:55.139Z,21.00
2023-02-11T08:06:24.359Z,21.30
2023-02-11T08:08:52.571Z,20.30
2023-02-11T08:11:22.693Z,20.20
2023-02-11T08:13:51.482Z,20.90
2023-02-11T08:16:24.348Z,23.10
2023-02-11T08:18:53.189Z,21.70
2023-02-11T08:21:21.533Z,20.70
2023-02-11T08:23:49.895Z,21.50
2023-02-11T08:26:26.034Z,21.90
2023-02-11T08:28:55.690Z,21.90
2023-02-11T08:31:28.961Z,23.80
2023-02-11T08:34:00.333Z,23.00
2023-02-11T08:36:30.667Z,21.50
2023-02-11T08:39:18.077Z,21.50
2023-02-11T08:41:52.367Z,21.90
2023-02-11T08:44:21.280Z,21.80
2023-02-11T08:46:50.393Z,23.90
2023-02-11T08:49:20.631Z,23.70
2023-02-11T08:51:49.003Z,21.20
2023-02-11T08:54:17.487Z,24.40
2023-02-11T08:56:45.714Z,22.50
2023-02-11T08:59:15.568Z,22.60
2023-02-11T09:01:44.547Z,40.00
2023-02-11T09:04:14.795Z,23.50
2023-02-11T09:06:43.550Z,21.80
2023-02-11T09:09:13.766Z,20.20
2023-02-11T09:11:42.720Z,22.20
2023-02-11T09:14:22.475Z,24.50
2023-02-11T09:16:51.846Z,22.70
2023-02-11T09:21:54.525Z,21.70
2023-02-11T09:24:22.881Z,22.10
2023-02-11T09:26:51.245Z,22.10
2023-02-11T09:29:19.520Z,22.70
2023-02-11T09:31:48.808Z,23.80
2023-02-11T09:34:17.628Z,23.70
2023-02-11T09:36:46.012Z,22.20
2023-02-11T09:39:18.063Z,23.40
2023-02-11T09:42:19.110Z,22.50
2023-02-11T09:44:48.409Z,25.80
2023-02-11T09:47:36.661Z,23.10
2023-02-11T09:50:19.686Z,23.20
2023-02-11T09:52:54.838Z,22.30
2023-02-11T09:55:42.755Z,23.80
2023-02-11T09:58:14.398Z,22.80
2023-02-11T10:00:48.609Z,22.60
2023-02-11T10:03:35.371Z,25.40
2023-02-11T10:06:25.655Z,24.80
2023-02-11T10:09:03.979Z,23.50
2023-02-11T10:11:35.476Z,20.80
2023-02-11T10:14:07.518Z,23.90
2023-02-11T10:17:10.027Z,23.80
2023-02-11T10:19:55.761Z,22.60
2023-02-11T10:22:39.910Z,25.70
2023-02-11T10:25:25.175Z,24.30
2023-02-11T10:27:57.227Z,24.00
2023-02-11T10:30:33.434Z,24.90
2023-02-11T10:33:32.619Z,24.50
2023-02-11T10:36:01.163Z,25.50
2023-02-11T10:38:29.696Z,25.70
2023-02-11T10:40:57.973Z,25.10
2023-02-11T10:43:27.968Z,26.00
2023-02-11T10:45:56.542Z,25.30
2023-02-11T10:48:51.716Z,25.90
2023-02-11T10:51:29.415Z,26.00
2023-02-11T10:54:19.521Z,25.10
2023-02-11T10:56:52.942Z,25.80
2023-02-11T10:59:40.552Z,26.30
2023-02-11T11:02:23.445Z,24.60
2023-02-11T11:04:56.139Z,23.50
2023-02-11T11:07:27.448Z,25.40
2023-02-11T11:10:03.133Z,25.80
2023-02-11T11:12:36.484Z,25.80
2023-02-11T11:15:11.379Z,20.50
2023-02-11T11:17:45.200Z,26.80
2023-02-11T11:20:19.501Z,28.00
2023-02-11T11:22:48.900Z,26.90
2023-02-11T11:25:29.767Z,26.00
2023-02-11T11:27:59.266Z,26.20
2023-02-11T11:30:32.091Z,26.20
2023-02-11T11:33:00.283Z,25.90
2023-02-11T11:35:30.067Z,24.90
2023-02-11T11:38:03.499Z,26.80
2023-02-11T11:40:33.274Z,23.50
2023-02-11T11:43:14.248Z,24.40
2023-02-11T11:45:56.880Z,25.50
2023-02-11T11:48:42.839Z,24.40
2023-02-11T11:51:11.663Z,26.70
2023-02-11T11:54:00.778Z,25.40
2023-02-11T11:56:31.103Z,24.20
2023-02-11T11:59:01.055Z,24.40
2023-02-11T12:01:57.559Z,23.40
2023-02-11T12:04:33.070Z,22.40
2023-02-11T12:07:12.139Z,24.20
2023-02-11T12:09:54.406Z,23.80
2023-02-11T12:12:54.945Z,24.60
2023-02-11T12:15:42.941Z,23.50
2023-02-11T12:18:39.705Z,24.80
2023-02-11T12:21:43.285Z,25.60
2023-02-11T12:24:38.326Z,23.80
2023-02-11T12:27:13.272Z,24.60
2023-02-11T12:30:04.861Z,25.90
2023-02-11T12:33:17.966Z,22.40
2023-02-11T12:35:46.311Z,25.70
2023-02-11T12:38:39.877Z,25.10
2023-02-11T12:42:10.017Z,24.50
2023-02-11T12:45:03.520Z,23.10
2023-02-11T12:48:00.865Z,17.70
2023-02-11T12:50:32.971Z,24.00
2023-02-11T12:53:23.109Z,21.00
2023-02-11T12:55:56.434Z,22.60
2023-02-11T12:58:35.609Z,24.10
2023-02-11T13:01:18.135Z,22.60
2023-02-11T13:03:52.155Z,21.50
2023-02-11T13:06:24.230Z,20.60
2023-02-11T13:09:00.036Z,20.60
2023-02-11T13:11:39.311Z,21.40
2023-02-11T13:14:26.330Z,23.10
2023-02-11T13:16:55.407Z,20.60
2023-02-11T13:19:35.013Z,21.10
2023-02-11T13:22:13.880Z,21.40
2023-02-11T13:24:44.645Z,19.70
2023-02-11T13:27:23.770Z,19.20
2023-02-11T13:30:47.110Z,18.70
2023-02-11T13:33:18.440Z,18.20
2023-02-11T13:35:56.425Z,18.80
2023-02-11T13:38:27.738Z,17.10
2023-02-11T13:41:04.484Z,17.90
2023-02-11T13:43:36.055Z,16.00
2023-02-11T13:46:10.387Z,16.00
2023-02-11T13:48:50.075Z,17.60
2023-02-11T13:51:32.784Z,16.80
2023-02-11T13:54:01.270Z,15.10
2023-02-11T13:56:36.592Z,15.00
2023-02-11T13:59:26.688Z,14.10
2023-02-11T14:02:36.362Z,13.80
2023-02-11T14:05:23.242Z,15.70
2023-02-11T14:08:28.458Z,12.80
2023-02-11T14:10:58.855Z,11.60
2023-02-11T14:14:01.649Z,12.10
2023-02-11T14:16:37.845Z,11.00
2023-02-11T14:19:10.020Z,9.60
2023-02-11T14:21:40.890Z,9.70
2023-02-11T14:24:13.261Z,10.20
2023-02-11T14:26:59.602Z,10.20
2023-02-11T14:29:52.330Z,9.90
2023-02-11T14:32:34.407Z,9.00
2023-02-11T14:35:13.245Z,9.20
2023-02-11T14:37:59.843Z,9.60
2023-02-11T14:40:33.537Z,10.70
2023-02-11T14:43:08.290Z,10.50
2023-02-11T14:45:36.974Z,11.30
2023-02-11T14:48:08.592Z,10.70
2023-02-11T14:50:53.308Z,11.90
2023-02-11T14:53:23.007Z,10.60
2023-02-11T14:55:55.930Z,11.10
2023-02-11T14:58:30.136Z,11.70
2023-02-11T15:01:06.674Z,12.10
2023-02-11T15:03:41.993Z,11.30
2023-02-11T15:06:19.142Z,12.30
2023-02-11T15:08:50.343Z,12.00
2023-02-11T15:11:20.773Z,13.50
2023-02-11T15:13:50.520Z,16.50
2023-02-11T15:16:26.317Z,13.60
2023-02-11T15:18:57.077Z,12.80
2023-02-11T15:21:30.479Z,12.90
2023-02-11T15:24:03.712Z,13.30
2023-02-11T15:26:32.363Z,13.60
2023-02-11T15:29:01.099Z,13.60
2023-02-11T15:31:31.742Z,14.50
2023-02-11T15:34:08.461Z,12.80
2023-02-11T15:36:37.968Z,14.00
2023-02-11T15:39:18.649Z,13.50
2023-02-11T15:41:47.083Z,12.20
2023-02-11T15:44:29.589Z,14.30
2023-02-11T15:46:57.809Z,13.20
2023-02-11T15:49:26.400Z,15.30
2023-02-11T15:51:55.393Z,14.50
2023-02-11T15:54:29.496Z,15.50
2023-02-11T15:57:05.055Z,17.40
2023-02-11T15:59:39.296Z,16.30
2023-02-11T16:02:33.035Z,17.30
2023-02-11T16:05:04.942Z,15.70
2023-02-11T16:07:52.114Z,16.10
2023-02-11T16:10:32.318Z,16.10
2023-02-11T16:13:06.471Z,16.70
2023-02-11T16:16:02.486Z,16.70
2023-02-11T16:18:39.814Z,17.90
2023-02-11T16:21:15.893Z,16.30
2023-02-11T16:23:49.330Z,16.90
2023-02-11T16:26:27.596Z,16.20
2023-02-11T16:29:04.723Z,17.90
2023-02-11T16:31:41.240Z,17.30
2023-02-11T16:34:17.193Z,17.00
2023-02-11T16:36:46.663Z,17.20
2023-02-11T16:39:15.141Z,17.20
2023-02-11T16:41:43.741Z,17.10
2023-02-11T16:44:12.126Z,17.40
2023-02-11T16:46:41.158Z,16.90
2023-02-11T16:49:10.379Z,16.50
2023-02-11T16:51:39.736Z,17.50
2023-02-11T16:54:12.060Z,16.00
2023-02-11T16:56:41.023Z,16.10
2023-02-11T16:59:10.090Z,17.70
2023-02-11T17:01:39.422Z,17.90
2023-02-11T17:04:11.922Z,17.50
2023-02-11T17:06:40.117Z,17.10
2023-02-11T17:09:15.861Z,16.50
2023-02-11T17:11:45.102Z,17.90
2023-02-11T17:14:13.598Z,18.50
2023-02-11T17:16:42.546Z,17.80
2023-02-11T17:19:15.899Z,16.90
2023-02-11T17:21:48.326Z,16.30
2023-02-11T17:24:16.639Z,17.10
2023-02-11T17:26:45.006Z,16.40
2023-02-11T17:29:15.558Z,18.10
2023-02-11T17:31:44.020Z,17.30
2023-02-11T17:34:12.330Z,17.40
2023-02-11T17:36:41.731Z,16.70
2023-02-11T17:39:10.698Z,17.30
2023-02-11T17:41:39.343Z,16.60
2023-02-11T17:44:12.231Z,16.20
2023-02-11T17:46:40.991Z,16.30
2023-02-11T17:49:12.101Z,17.60
2023-02-11T17:51:43.675Z,15.60
2023-02-11T17:54:13.920Z,16.60
2023-02-11T17:56:42.368Z,16.60
2023-02-11T17:59:11.407Z,16.50
2023-02-11T18:01:40.298Z,15.90
2023-02-11T18:04:13.857Z,15.70
2023-02-11T18:06:42.599Z,16.40
2023-02-11T18:09:11.492Z,17.20
2023-02-11T18:11:41.127Z,16.70
2023-02-11T18:14:10.522Z,15.80
2023-02-11T18:16:43.144Z,17.00
2023-02-11T18:19:11.990Z,16.60
2023-02-11T18:21:41.746Z,16.70
2023-02-11T18:24:10.221Z,16.00
2023-02-11T18:26:38.742Z,15.50
2023-02-11T18:29:07.461Z,16.50
2023-02-11T18:31:35.802Z,15.40
2023-02-11T18:34:06.075Z,17.40
2023-02-11T18:36:34.226Z,17.20
2023-02-11T18:39:02.458Z,16.90
2023-02-11T18:41:30.778Z,16.50
2023-02-11T18:44:03.171Z,16.30
2023-02-11T18:46:31.894Z,16.10
2023-02-11T18:49:00.365Z,17.90
2023-02-11T18:51:28.841Z,16.90
2023-02-11T18:53:57.318Z,17.20
2023-02-11T18:56:27.918Z,16.90
2023-02-11T18:58:58.210Z,17.40
2023-02-11T19:01:27.599Z,16.20
2023-02-11T19:03:58.167Z,16.70
2023-02-11T19:06:27.862Z,17.00
2023-02-11T19:09:02.584Z,15.80
2023-02-11T19:11:47.482Z,17.70
2023-02-11T19:14:17.827Z,16.90
2023-02-11T19:16:46.511Z,15.90
2023-02-11T19:19:14.763Z,17.70
2023-02-11T19:21:44.248Z,16.50
2023-02-11T19:24:13.094Z,18.20
2023-02-11T19:26:41.423Z,18.80
2023-02-11T19:29:09.475Z,16.60
2023-02-11T19:31:37.727Z,17.00
2023-02-11T19:34:07.558Z,18.20
2023-02-11T19:36:35.672Z,17.80
2023-02-11T19:39:04.670Z,17.80
2023-02-11T19:41:33.794Z,17.70
2023-02-11T19:44:02.257Z,17.80
2023-02-11T19:46:33.065Z,18.10
2023-02-11T19:49:01.384Z,17.90
2023-02-11T19:51:31.093Z,19.90
2023-02-11T19:54:00.456Z,19.60
2023-02-11T19:56:29.347Z,19.20
2023-02-11T19:58:58.115Z,18.80
2023-02-11T20:01:26.358Z,18.20
2023-02-11T20:03:55.246Z,18.50
2023-02-11T20:06:25.687Z,19.70
2023-02-11T20:09:01.037Z,20.60
2023-02-11T20:11:30.474Z,19.20
2023-02-11T20:13:59.438Z,20.10
2023-02-11T20:16:46.978Z,19.80
2023-02-11T20:19:21.744Z,20.30
2023-02-11T20:21:55.633Z,20.50
2023-02-11T20:24:24.788Z,21.10
2023-02-11T20:26:56.193Z,20.70
2023-02-11T20:29:25.582Z,20.80
2023-02-11T20:31:56.034Z,18.70
2023-02-11T20:34:25.309Z,19.70
2023-02-11T20:36:54.215Z,19.70
2023-02-11T20:39:24.209Z,18.60
2023-02-11T20:41:53.484Z,19.80
2023-02-11T20:44:22.542Z,20.70
2023-02-11T20:46:51.604Z,20.60
2023-02-11T20:49:21.598Z,19.30
2023-02-11T20:51:51.377Z,19.70
2023-02-11T20:54:20.238Z,20.70
2023-02-11T20:56:54.061Z,20.40
2023-02-11T20:59:22.649Z,18.50
2023-02-11T21:01:55.647Z,18.60
2023-02-11T21:04:26.075Z,19.20
2023-02-11T21:06:56.377Z,18.60
2023-02-11T21:09:27.273Z,21.60
2023-02-11T21:11:57.042Z,18.60
2023-02-11T21:14:26.960Z,20.20
2023-02-11T21:16:55.124Z,19.90
2023-02-11T21:19:23.626Z,20.50
2023-02-11T21:21:51.923Z,19.60
2023-02-11T21:24:20.084Z,18.60
2023-02-11T21:26:49.084Z,19.90
2023-02-11T21:29:17.462Z,20.10
2023-02-11T21:31:46.359Z,21.40
2023-02-11T21:34:16.222Z,20.70
2023-02-11T21:36:45.388Z,21.30
2023-02-11T21:39:14.063Z,19.70
2023-02-11T21:41:42.590Z,19.60
2023-02-11T21:44:13.082Z,19.10
2023-02-11T21:46:42.680Z,19.10
2023-02-11T21:49:12.006Z,19.80
2023-02-11T21:51:40.999Z,20.90
2023-02-11T21:54:10.841Z,20.10
2023-02-11T21:56:40.844Z,20.70
2023-02-11T21:59:11.740Z,19.00
2023-02-11T22:01:41.083Z,20.60
2023-02-11T22:04:09.743Z,19.70
2023-02-11T22:06:40.421Z,20.30
2023-02-11T22:09:09.108Z,18.80
2023-02-11T22:11:37.740Z,19.80
2023-02-11T22:14:06.079Z,18.70
2023-02-11T22:16:35.818Z,20.40
2023-02-11T22:19:06.214Z,19.30
2023-02-11T22:21:34.725Z,19.50
2023-02-11T22:24:03.013Z,20.90
2023-02-11T22:26:34.633Z,20.30
2023-02-11T22:29:03.351Z,19.80
2023-02-11T22:31:33.966Z,20.60
2023-02-11T22:34:03.060Z,19.80
2023-02-11T22:36:37.413Z,19.20
2023-02-11T22:41:39.189Z,19.00
2023-02-11T22:44:08.366Z,19.80
2023-02-11T22:46:36.748Z,19.50
2023-02-11T22:49:05.231Z,20.10
2023-02-11T22:51:33.823Z,18.60
2023-02-11T22:54:03.369Z,19.70
2023-02-11T22:56:32.373Z,19.70
2023-02-11T22:59:01.831Z,19.60
2023-02-11T23:01:30.195Z,17.80
2023-02-11T23:04:02.895Z,20.30
2023-02-11T23:06:31.488Z,19.40
2023-02-11T23:08:59.969Z,18.50
2023-02-11T23:11:29.328Z,16.70
2023-02-11T23:14:00.201Z,18.60
2023-02-11T23:16:31.489Z,17.40
2023-02-11T23:19:00.766Z,18.80
2023-02-11T23:21:30.804Z,17.20
2023-02-11T23:24:00.547Z,16.50
2023-02-11T23:26:29.094Z,17.10
2023-02-11T23:28:59.305Z,16.50
2023-02-11T23:31:37.951Z,16.80
2023-02-11T23:34:07.073Z,15.90
2023-02-11T23:36:36.648Z,14.20
2023-02-11T23:39:05.143Z,16.30
2023-02-11T23:41:34.951Z,14.50
2023-02-11T23:44:03.646Z,14.50
2023-02-11T23:46:33.092Z,14.90
2023-02-11T23:49:02.698Z,14.60
2023-02-11T23:51:32.272Z,14.90
2023-02-11T23:54:01.785Z,13.50
2023-02-11T23:56:30.777Z,13.80
2023-02-11T23:58:59.467Z,13.70
